createdAt,value
2017-09-22T00:01:50.212Z,6.00
2017-09-22T00:04:24.633Z,7.53
2017-09-22T00:07:01.312Z,7.68
2017-09-22T00:09:36.347Z,5.87
2017-09-22T00:12:10.147Z,6.18
2017-09-22T00:14:43.929Z,7.12
2017-09-22T00:17:17.722Z,7.40
2017-09-22T00:19:51.464Z,8.70
2017-09-22T00:22:25.176Z,7.45
2017-09-22T00:24:58.921Z,6.20
2017-09-22T00:27:32.678Z,8.38
2017-09-22T00:30:06.426Z,7.28
2017-09-22T00:32:41.005Z,7.45
2017-09-22T00:35:14.768Z,6.15
2017-09-22T00:37:48.511Z,7.25
2017-09-22T00:40:22.165Z,7.10
2017-09-22T00:42:56.644Z,6.00
2017-09-22T00:45:30.276Z,6.78
2017-09-22T00:48:04.626Z,5.62
2017-09-22T00:50:38.307Z,8.20
2017-09-22T00:53:11.881Z,8.57
2017-09-22T00:55:46.436Z,7.53
2017-09-22T00:58:20.202Z,6.72
2017-09-22T01:00:55.193Z,8.07
2017-09-22T01:03:29.639Z,7.18
2017-09-22T01:06:03.336Z,7.78
2017-09-22T01:08:37.044Z,6.95
2017-09-22T01:11:10.887Z,8.30
2017-09-22T01:13:45.011Z,5.68
2017-09-22T01:16:20.065Z,6.53
2017-09-22T01:18:54.633Z,6.20
2017-09-22T01:21:29.483Z,6.35
2017-09-22T01:24:03.923Z,6.80
2017-09-22T01:26:38.353Z,6.35
2017-09-22T01:29:12.792Z,6.68
2017-09-22T01:31:46.634Z,8.38
2017-09-22T01:34:20.281Z,7.30
2017-09-22T01:36:53.981Z,5.07
2017-09-22T01:39:27.842Z,6.65
2017-09-22T01:42:01.575Z,6.32
2017-09-22T01:44:36.108Z,6.57
2017-09-22T01:47:10.534Z,6.20
2017-09-22T01:49:47.827Z,6.43
2017-09-22T01:52:22.440Z,6.70
2017-09-22T01:54:56.154Z,6.90
2017-09-22T01:57:29.820Z,4.03
2017-09-22T02:00:03.576Z,5.80
2017-09-22T02:02:38.138Z,5.55
2017-09-22T02:05:11.969Z,9.18
2017-09-22T02:07:45.679Z,7.15
2017-09-22T02:10:19.488Z,5.85
2017-09-22T02:12:53.068Z,5.00
2017-09-22T02:15:26.776Z,4.82
2017-09-22T02:18:02.184Z,9.38
2017-09-22T02:20:38.488Z,8.05
2017-09-22T02:23:12.334Z,5.35
2017-09-22T02:25:46.981Z,6.78
2017-09-22T02:28:20.856Z,6.75
2017-09-22T02:30:54.614Z,6.30
2017-09-22T02:33:29.737Z,6.25
2017-09-22T02:36:03.473Z,7.35
2017-09-22T02:38:37.354Z,4.32
2017-09-22T02:41:13.768Z,7.53
2017-09-22T02:43:48.206Z,7.78
2017-09-22T02:46:21.910Z,6.05
2017-09-22T02:48:57.277Z,5.10
2017-09-22T02:51:31.154Z,5.10
2017-09-22T02:54:04.940Z,5.00
2017-09-22T02:56:38.694Z,7.05
2017-09-22T02:59:13.244Z,5.35
2017-09-22T03:01:47.051Z,5.65
2017-09-22T03:04:20.809Z,5.40
2017-09-22T03:06:55.376Z,5.32
2017-09-22T03:09:29.238Z,5.43
2017-09-22T03:12:03.637Z,5.43
2017-09-22T03:14:38.078Z,5.20
2017-09-22T03:17:12.665Z,16.00
2017-09-22T03:19:46.320Z,7.95
2017-09-22T03:22:20.845Z,10.57
2017-09-22T03:24:54.804Z,15.25
2017-09-22T03:27:29.392Z,10.35
2017-09-22T03:30:03.173Z,11.02
2017-09-22T03:32:37.457Z,9.40
2017-09-22T03:35:11.200Z,7.85
2017-09-22T03:37:45.061Z,4.60
2017-09-22T03:40:18.962Z,4.82
2017-09-22T03:42:53.618Z,6.22
2017-09-22T03:45:27.559Z,4.80
2017-09-22T03:48:01.865Z,5.28
2017-09-22T03:50:35.648Z,5.35
2017-09-22T03:53:09.420Z,6.53
2017-09-22T03:55:44.214Z,5.97
2017-09-22T03:58:19.018Z,6.40
2017-09-22T04:00:52.707Z,4.43
2017-09-22T04:03:27.445Z,4.95
2017-09-22T04:06:05.071Z,6.43
2017-09-22T04:08:38.940Z,4.65
2017-09-22T04:11:13.413Z,6.72
2017-09-22T04:13:47.671Z,5.07
2017-09-22T04:16:22.760Z,6.10
2017-09-22T04:18:56.631Z,6.55
2017-09-22T04:21:33.116Z,4.70
2017-09-22T04:24:07.420Z,5.18
2017-09-22T04:26:41.730Z,5.85
2017-09-22T04:29:16.349Z,5.82
2017-09-22T04:31:50.120Z,7.62
2017-09-22T04:34:23.970Z,6.32
2017-09-22T04:36:58.289Z,4.72
2017-09-22T04:39:32.095Z,7.07
2017-09-22T04:42:05.873Z,5.72
2017-09-22T04:44:39.571Z,4.57
2017-09-22T04:47:13.966Z,4.65
2017-09-22T04:49:49.309Z,6.37
2017-09-22T04:52:23.837Z,5.57
2017-09-22T04:54:58.422Z,5.35
2017-09-22T04:57:32.157Z,6.97
2017-09-22T05:00:05.952Z,4.97
2017-09-22T05:02:40.134Z,6.50
2017-09-22T05:05:14.684Z,8.40
2017-09-22T05:07:48.406Z,7.12
2017-09-22T05:10:23.650Z,6.15
2017-09-22T05:12:57.336Z,9.10
2017-09-22T05:15:31.202Z,7.60
2017-09-22T05:18:04.890Z,5.95
2017-09-22T05:20:38.727Z,7.80
2017-09-22T05:23:12.550Z,6.90
2017-09-22T05:25:46.274Z,7.00
2017-09-22T05:28:19.875Z,7.05
2017-09-22T05:30:53.535Z,8.15
2017-09-22T05:33:28.042Z,6.10
2017-09-22T05:36:02.632Z,8.57
2017-09-22T05:38:38.128Z,7.68
2017-09-22T05:41:11.709Z,9.23
2017-09-22T05:43:45.479Z,7.68
2017-09-22T05:46:19.724Z,8.70
2017-09-22T05:48:53.384Z,7.75
2017-09-22T05:51:27.530Z,7.12
2017-09-22T05:54:01.233Z,6.12
2017-09-22T05:56:35.922Z,6.85
2017-09-22T05:59:09.780Z,7.60
2017-09-22T06:01:44.557Z,7.72
2017-09-22T06:04:18.870Z,6.45
2017-09-22T06:06:53.452Z,6.60
2017-09-22T06:09:27.320Z,6.12
2017-09-22T06:12:01.596Z,7.87
2017-09-22T06:14:38.680Z,8.15
2017-09-22T06:17:12.297Z,5.50
2017-09-22T06:19:46.053Z,9.23
2017-09-22T06:22:20.614Z,7.70
2017-09-22T06:24:55.227Z,8.30
2017-09-22T06:27:28.985Z,9.10
2017-09-22T06:30:03.373Z,7.00
2017-09-22T06:32:37.887Z,5.85
2017-09-22T06:35:11.530Z,5.68
2017-09-22T06:37:45.406Z,6.18
2017-09-22T06:40:19.228Z,8.18
2017-09-22T06:42:52.914Z,4.95
2017-09-22T06:45:26.703Z,6.15
2017-09-22T06:48:00.360Z,5.87
2017-09-22T06:50:34.282Z,7.90
2017-09-22T06:53:08.121Z,7.90
2017-09-22T06:55:41.929Z,4.75
2017-09-22T06:58:15.805Z,6.37
2017-09-22T07:00:49.707Z,4.90
2017-09-22T07:03:23.327Z,7.70
2017-09-22T07:05:57.135Z,5.07
2017-09-22T07:08:31.702Z,4.70
2017-09-22T07:11:06.340Z,6.12
2017-09-22T07:13:40.064Z,6.05
2017-09-22T07:16:14.767Z,6.37
2017-09-22T07:18:48.590Z,6.45
2017-09-22T07:21:22.434Z,5.62
2017-09-22T07:23:56.808Z,6.03
2017-09-22T07:26:31.284Z,6.18
2017-09-22T07:29:05.058Z,5.72
2017-09-22T07:31:39.685Z,5.43
2017-09-22T07:34:14.397Z,6.47
2017-09-22T07:36:49.105Z,7.12
2017-09-22T07:39:22.807Z,6.70
2017-09-22T07:41:56.508Z,6.20
2017-09-22T07:44:31.973Z,6.50
2017-09-22T07:47:05.925Z,6.30
2017-09-22T07:49:39.626Z,12.32
2017-09-22T07:52:13.486Z,6.75
2017-09-22T07:54:48.227Z,6.87
2017-09-22T07:57:22.026Z,5.35
2017-09-22T07:59:55.749Z,9.73
2017-09-22T08:02:29.620Z,6.57
2017-09-22T08:05:03.442Z,6.70
2017-09-22T08:07:37.255Z,6.80
2017-09-22T08:10:11.039Z,5.40
2017-09-22T08:12:45.813Z,5.18
2017-09-22T08:15:20.126Z,6.35
2017-09-22T08:17:53.859Z,5.93
2017-09-22T08:20:28.610Z,6.75
2017-09-22T08:23:02.870Z,5.45
2017-09-22T08:25:36.670Z,6.28
2017-09-22T08:28:10.547Z,4.97
2017-09-22T08:30:45.921Z,5.55
2017-09-22T08:33:19.677Z,7.22
2017-09-22T08:35:53.509Z,5.20
2017-09-22T08:38:27.159Z,4.50
2017-09-22T08:41:01.448Z,5.05
2017-09-22T08:43:35.840Z,5.07
2017-09-22T08:46:09.644Z,7.78
2017-09-22T08:48:43.342Z,3.53
2017-09-22T08:51:16.969Z,7.20
2017-09-22T08:53:50.581Z,4.55
2017-09-22T08:56:24.272Z,5.00
2017-09-22T08:58:57.822Z,3.37
2017-09-22T09:01:31.646Z,4.15
2017-09-22T09:04:05.412Z,6.15
2017-09-22T09:06:39.809Z,4.82
2017-09-22T09:09:14.504Z,4.47
2017-09-22T09:11:48.246Z,4.53
2017-09-22T09:14:21.892Z,4.72
2017-09-22T09:16:55.744Z,4.55
2017-09-22T09:19:29.349Z,5.28
2017-09-22T09:22:02.929Z,4.32
2017-09-22T09:24:39.242Z,5.03
2017-09-22T09:27:13.606Z,5.80
2017-09-22T09:29:47.401Z,7.07
2017-09-22T09:32:21.122Z,5.32
2017-09-22T09:34:54.994Z,6.50
2017-09-22T09:37:28.738Z,4.95
2017-09-22T09:40:02.597Z,4.50
2017-09-22T09:42:36.344Z,3.83
2017-09-22T09:45:10.016Z,5.90
2017-09-22T09:47:43.874Z,4.35
2017-09-22T09:50:18.196Z,5.80
2017-09-22T09:52:51.718Z,6.47
2017-09-22T09:55:26.144Z,4.80
2017-09-22T09:58:00.634Z,5.37
2017-09-22T10:00:34.888Z,8.90
2017-09-22T10:03:08.762Z,5.65
2017-09-22T10:05:42.575Z,5.70
2017-09-22T10:08:17.061Z,4.70
2017-09-22T10:10:51.488Z,5.07
2017-09-22T10:13:25.230Z,4.78
2017-09-22T10:15:59.007Z,4.60
2017-09-22T10:18:32.929Z,4.65
2017-09-22T10:21:06.650Z,3.78
2017-09-22T10:23:40.241Z,6.05
2017-09-22T10:26:13.968Z,5.87
2017-09-22T10:28:48.525Z,3.75
2017-09-22T10:31:22.384Z,5.32
2017-09-22T10:33:56.138Z,4.37
2017-09-22T10:36:30.625Z,5.05
2017-09-22T10:39:05.014Z,5.85
2017-09-22T10:41:38.711Z,5.53
2017-09-22T10:44:14.511Z,4.50
2017-09-22T10:46:48.248Z,4.43
2017-09-22T10:49:22.334Z,5.78
2017-09-22T10:51:55.900Z,4.68
2017-09-22T10:54:30.579Z,5.68
2017-09-22T10:57:04.279Z,4.95
2017-09-22T10:59:38.091Z,5.75
2017-09-22T11:02:11.775Z,5.95
2017-09-22T11:04:45.493Z,4.50
2017-09-22T11:07:19.212Z,5.65
2017-09-22T11:09:54.474Z,5.75
2017-09-22T11:12:28.238Z,5.78
2017-09-22T11:15:01.882Z,5.75
2017-09-22T11:17:35.724Z,5.80
2017-09-22T11:20:09.546Z,5.32
2017-09-22T11:22:43.361Z,5.62
2017-09-22T11:25:17.934Z,5.60
2017-09-22T11:27:51.622Z,4.53
2017-09-22T11:30:28.863Z,6.75
2017-09-22T11:33:03.206Z,5.50
2017-09-22T11:35:37.041Z,5.15
2017-09-22T11:38:11.606Z,4.85
2017-09-22T11:40:45.278Z,6.25
2017-09-22T11:43:18.839Z,6.97
2017-09-22T11:45:52.651Z,4.50
2017-09-22T11:48:26.531Z,5.25
2017-09-22T11:51:01.077Z,4.30
2017-09-22T11:53:36.154Z,4.50
2017-09-22T11:56:09.922Z,4.37
2017-09-22T11:58:43.734Z,4.70
2017-09-22T12:01:17.380Z,4.55
2017-09-22T12:03:50.962Z,4.45
2017-09-22T12:06:24.787Z,3.67
2017-09-22T12:08:58.533Z,4.37
2017-09-22T12:11:32.326Z,5.22
2017-09-22T12:14:06.120Z,4.32
2017-09-22T12:16:41.184Z,4.65
2017-09-22T12:19:14.832Z,6.05
2017-09-22T12:21:49.115Z,5.40
2017-09-22T12:24:23.869Z,4.68
2017-09-22T12:26:58.336Z,4.68
2017-09-22T12:29:32.104Z,4.50
2017-09-22T12:32:06.434Z,4.47
2017-09-22T12:34:40.144Z,4.80
2017-09-22T12:37:13.943Z,5.05
2017-09-22T12:39:47.545Z,6.03
2017-09-22T12:42:21.339Z,5.35
2017-09-22T12:44:54.937Z,5.30
2017-09-22T12:47:29.460Z,5.40
2017-09-22T12:50:03.109Z,4.55
2017-09-22T12:52:37.591Z,4.70
2017-09-22T12:55:11.293Z,4.47
2017-09-22T12:57:45.093Z,4.15
2017-09-22T13:00:18.855Z,5.30
2017-09-22T13:02:52.728Z,5.10
2017-09-22T13:05:26.346Z,5.22
2017-09-22T13:08:00.150Z,4.32
2017-09-22T13:10:33.796Z,5.25
2017-09-22T13:13:08.315Z,4.00
2017-09-22T13:15:42.128Z,4.62
2017-09-22T13:18:15.760Z,4.90
2017-09-22T13:20:49.439Z,4.55
2017-09-22T13:23:23.012Z,4.80
2017-09-22T13:25:56.702Z,4.90
2017-09-22T13:28:30.555Z,4.82
2017-09-22T13:31:05.001Z,5.75
2017-09-22T13:33:39.471Z,5.07
2017-09-22T13:36:14.009Z,4.68
2017-09-22T13:38:47.819Z,4.90
2017-09-22T13:41:24.191Z,4.25
2017-09-22T13:43:57.993Z,4.40
2017-09-22T13:46:33.276Z,4.82
2017-09-22T13:49:07.046Z,4.55
2017-09-22T13:51:43.531Z,4.72
2017-09-22T13:54:18.085Z,5.25
2017-09-22T13:56:52.507Z,4.40
2017-09-22T13:59:26.828Z,4.65
2017-09-22T14:02:01.362Z,5.20
2017-09-22T14:04:34.965Z,4.40
2017-09-22T14:07:08.711Z,4.62
2017-09-22T14:09:42.573Z,5.30
2017-09-22T14:12:16.371Z,6.28
2017-09-22T14:14:50.651Z,5.43
2017-09-22T14:17:24.444Z,6.43
2017-09-22T14:20:00.100Z,6.05
2017-09-22T14:22:33.848Z,5.72
2017-09-22T14:25:07.619Z,7.05
2017-09-22T14:27:41.361Z,6.10
2017-09-22T14:30:15.832Z,5.97
2017-09-22T14:32:49.656Z,4.25
2017-09-22T14:35:24.204Z,4.95
2017-09-22T14:37:58.058Z,6.30
2017-09-22T14:40:31.638Z,5.03
2017-09-22T14:43:05.475Z,5.30
2017-09-22T14:45:40.112Z,5.87
2017-09-22T14:48:13.809Z,6.47
2017-09-22T14:50:47.504Z,6.78
2017-09-22T14:53:21.118Z,5.80
2017-09-22T14:55:55.341Z,5.95
2017-09-22T14:58:29.064Z,4.93
2017-09-22T15:01:02.780Z,3.97
2017-09-22T15:03:36.538Z,4.55
2017-09-22T15:06:10.193Z,4.40
2017-09-22T15:08:44.013Z,4.55
2017-09-22T15:11:17.921Z,6.50
2017-09-22T15:13:51.741Z,5.70
2017-09-22T15:16:25.327Z,3.92
2017-09-22T15:18:59.140Z,4.35
2017-09-22T15:21:32.982Z,4.20
2017-09-22T15:24:07.603Z,4.68
2017-09-22T15:26:42.190Z,6.25
2017-09-22T15:29:16.359Z,5.40
2017-09-22T15:31:51.113Z,4.15
2017-09-22T15:34:24.879Z,5.10
2017-09-22T15:36:58.576Z,5.28
2017-09-22T15:39:34.163Z,4.30
2017-09-22T15:42:08.809Z,5.10
2017-09-22T15:44:42.561Z,3.70
2017-09-22T15:47:16.356Z,3.92
2017-09-22T15:49:50.128Z,4.15
2017-09-22T15:52:23.773Z,3.78
2017-09-22T15:54:58.476Z,4.07
2017-09-22T15:57:33.159Z,3.53
2017-09-22T16:00:07.251Z,3.78
2017-09-22T16:02:42.366Z,3.75
2017-09-22T16:05:17.650Z,3.92
2017-09-22T16:07:51.411Z,3.75
2017-09-22T16:10:25.933Z,3.72
2017-09-22T16:13:00.717Z,4.37
2017-09-22T16:15:36.122Z,4.60
2017-09-22T16:18:09.800Z,3.87
2017-09-22T16:20:44.394Z,4.43
2017-09-22T16:23:18.218Z,3.70
2017-09-22T16:25:52.057Z,3.97
2017-09-22T16:28:27.055Z,4.28
2017-09-22T16:31:00.707Z,4.97
2017-09-22T16:33:34.329Z,4.80
2017-09-22T16:36:07.997Z,4.62
2017-09-22T16:38:41.863Z,4.18
2017-09-22T16:41:15.674Z,6.00
2017-09-22T16:43:49.326Z,3.70
2017-09-22T16:46:23.945Z,4.00
2017-09-22T16:48:57.504Z,3.50
2017-09-22T16:51:32.876Z,3.92
2017-09-22T16:54:06.499Z,3.87
2017-09-22T16:56:40.350Z,4.82
2017-09-22T16:59:14.171Z,3.97
2017-09-22T17:01:48.854Z,4.40
2017-09-22T17:04:22.500Z,5.12
2017-09-22T17:06:56.127Z,5.18
2017-09-22T17:09:30.347Z,5.50
2017-09-22T17:12:04.180Z,4.35
2017-09-22T17:14:38.022Z,8.90
2017-09-22T17:17:11.709Z,10.55
2017-09-22T17:19:45.373Z,8.38
2017-09-22T17:22:19.036Z,9.63
2017-09-22T17:24:53.544Z,8.13
2017-09-22T17:27:27.995Z,8.43
2017-09-22T17:30:02.454Z,8.82
2017-09-22T17:32:37.001Z,8.90
2017-09-22T17:35:11.727Z,11.55
2017-09-22T17:37:45.319Z,16.55
2017-09-22T17:40:19.887Z,19.52
2017-09-22T17:42:53.709Z,17.48
2017-09-22T17:45:27.460Z,20.88
2017-09-22T17:48:01.178Z,25.90
2017-09-22T17:50:36.004Z,13.75
2017-09-22T17:53:09.898Z,11.20
2017-09-22T17:55:45.165Z,7.95
2017-09-22T17:58:18.908Z,7.53
2017-09-22T18:00:53.494Z,8.30
2017-09-22T18:03:29.127Z,9.63
2017-09-22T18:06:03.658Z,8.68
2017-09-22T18:08:38.016Z,9.82
2017-09-22T18:11:11.800Z,10.25
2017-09-22T18:13:45.795Z,10.15
2017-09-22T18:16:20.391Z,10.20
2017-09-22T18:18:54.141Z,9.88
2017-09-22T18:21:27.725Z,13.40
2017-09-22T18:24:01.518Z,12.45
2017-09-22T18:26:36.062Z,11.10
2017-09-22T18:29:09.850Z,6.75
2017-09-22T18:31:44.573Z,7.30
2017-09-22T18:34:18.630Z,8.63
2017-09-22T18:36:52.302Z,8.68
2017-09-22T18:39:26.949Z,8.90
2017-09-22T18:42:01.463Z,7.75
2017-09-22T18:44:35.078Z,10.77
2017-09-22T18:47:11.486Z,9.10
2017-09-22T18:49:45.989Z,11.07
2017-09-22T18:52:21.195Z,13.68
2017-09-22T18:54:54.797Z,12.20
2017-09-22T18:57:29.600Z,16.17
2017-09-22T19:00:03.398Z,14.35
2017-09-22T19:02:37.974Z,15.77
2017-09-22T19:05:11.733Z,15.95
2017-09-22T19:07:45.365Z,15.88
2017-09-22T19:10:19.256Z,19.92
2017-09-22T19:12:52.955Z,40.95
2017-09-22T19:15:26.608Z,29.63
2017-09-22T19:18:00.698Z,16.85
2017-09-22T19:20:34.534Z,19.23
2017-09-22T19:23:09.225Z,15.93
2017-09-22T19:25:43.021Z,8.77
2017-09-22T19:28:18.332Z,23.80
2017-09-22T19:30:52.071Z,31.67
2017-09-22T19:33:25.805Z,46.83
2017-09-22T19:35:59.747Z,35.75
2017-09-22T19:38:33.595Z,16.98
2017-09-22T19:41:08.716Z,16.02
2017-09-22T19:43:43.104Z,15.95
2017-09-22T19:46:16.799Z,16.52
2017-09-22T19:48:51.375Z,12.20
2017-09-22T19:51:25.215Z,9.60
2017-09-22T19:53:58.900Z,9.23
2017-09-22T19:56:32.765Z,9.82
2017-09-22T19:59:07.405Z,9.15
2017-09-22T20:01:42.616Z,6.65
2017-09-22T20:04:16.390Z,7.15
2017-09-22T20:06:50.076Z,9.88
2017-09-22T20:09:23.878Z,7.65
2017-09-22T20:11:57.719Z,8.55
2017-09-22T20:14:32.123Z,9.13
2017-09-22T20:17:05.945Z,13.70
2017-09-22T20:19:40.303Z,23.92
2017-09-22T20:22:14.805Z,12.30
2017-09-22T20:24:49.306Z,8.23
2017-09-22T20:27:23.757Z,8.32
2017-09-22T20:29:57.598Z,11.45
2017-09-22T20:32:31.386Z,9.05
2017-09-22T20:35:05.207Z,9.60
2017-09-22T20:37:38.904Z,7.87
2017-09-22T20:40:12.701Z,9.25
2017-09-22T20:42:46.584Z,9.90
2017-09-22T20:45:20.667Z,11.27
2017-09-22T20:47:54.391Z,10.10
2017-09-22T20:50:28.060Z,9.90
2017-09-22T20:53:01.789Z,8.98
2017-09-22T20:55:35.478Z,12.73
2017-09-22T20:58:10.098Z,11.43
2017-09-22T21:00:43.918Z,15.82
2017-09-22T21:03:17.712Z,13.98
2017-09-22T21:05:51.576Z,15.00
2017-09-22T21:08:25.240Z,10.15
2017-09-22T21:10:58.909Z,10.25
2017-09-22T21:13:32.575Z,10.73
2017-09-22T21:16:06.238Z,9.07
2017-09-22T21:18:39.990Z,11.65
2017-09-22T21:21:13.786Z,9.05
2017-09-22T21:23:48.457Z,10.18
2017-09-22T21:26:23.233Z,14.15
2017-09-22T21:28:57.738Z,13.93
2017-09-22T21:31:32.105Z,12.43
2017-09-22T21:34:05.974Z,10.13
2017-09-22T21:36:40.602Z,11.60
2017-09-22T21:39:15.361Z,12.60
2017-09-22T21:41:49.125Z,10.85
2017-09-22T21:44:22.987Z,10.45
2017-09-22T21:46:56.803Z,10.10
2017-09-22T21:49:30.486Z,9.55
2017-09-22T21:52:04.284Z,10.00
2017-09-22T21:54:38.162Z,9.63
2017-09-22T21:57:11.910Z,11.88
2017-09-22T21:59:45.563Z,8.25
2017-09-22T22:02:19.383Z,9.20
2017-09-22T22:04:58.807Z,12.55
2017-09-22T22:07:37.366Z,6.80
2017-09-22T22:10:11.204Z,6.82
2017-09-22T22:12:44.914Z,8.80
2017-09-22T22:15:19.535Z,6.30
2017-09-22T22:17:53.418Z,10.88
2017-09-22T22:20:28.004Z,7.85
2017-09-22T22:23:01.680Z,8.65
2017-09-22T22:25:35.313Z,6.97
2017-09-22T22:28:09.860Z,8.38
2017-09-22T22:30:43.595Z,9.65
2017-09-22T22:33:17.358Z,6.43
2017-09-22T22:35:51.235Z,7.35
2017-09-22T22:38:24.951Z,5.53
2017-09-22T22:40:58.600Z,7.47
2017-09-22T22:43:32.311Z,8.90
2017-09-22T22:46:07.377Z,7.87
2017-09-22T22:48:41.181Z,7.57
2017-09-22T22:51:16.694Z,9.13
2017-09-22T22:53:50.398Z,10.73
2017-09-22T22:56:24.157Z,7.18
2017-09-22T22:58:58.046Z,8.98
2017-09-22T23:01:34.454Z,9.60
2017-09-22T23:04:09.123Z,9.07
2017-09-22T23:06:42.851Z,6.72
2017-09-22T23:09:16.671Z,8.63
2017-09-22T23:11:51.136Z,7.30
2017-09-22T23:14:24.957Z,7.10
2017-09-22T23:16:59.484Z,8.32
2017-09-22T23:19:33.954Z,7.50
2017-09-22T23:22:07.572Z,6.37
2017-09-22T23:24:41.673Z,6.80
2017-09-22T23:27:15.959Z,6.43
2017-09-22T23:29:49.776Z,8.57
2017-09-22T23:32:24.242Z,7.50
2017-09-22T23:34:58.040Z,9.40
2017-09-22T23:37:31.736Z,6.95
2017-09-22T23:40:06.041Z,6.95
2017-09-22T23:42:40.722Z,9.52
2017-09-22T23:45:14.394Z,8.68
2017-09-22T23:47:49.526Z,9.43
2017-09-22T23:50:23.315Z,10.20
2017-09-22T23:52:57.489Z,9.48
2017-09-22T23:55:31.205Z,10.95
2017-09-22T23:58:08.264Z,7.35
